sensor_id;sensor_type;location;lat;lon;timestamp;temperature;humidity
31131;DHT22;20292;50.944;4.034;2022-10-01T00:00:57;13.20;99.90
31131;DHT22;20292;50.944;4.034;2022-10-01T00:03:25;13.20;99.90
31131;DHT22;20292;50.944;4.034;2022-10-01T00:08:28;13.20;99.90
31131;DHT22;20292;50.944;4.034;2022-10-01T00:10:54;13.10;99.90
31131;DHT22;20292;50.944;4.034;2022-10-01T00:13:19;13.10;99.90
31131;DHT22;20292;50.944;4.034;2022-10-01T00:15:45;13.10;99.90
31131;DHT22;20292;50.944;4.034;2022-10-01T00:18:11;13.10;99.90
31131;DHT22;20292;50.944;4.034;2022-10-01T00:20:41;13.10;99.90
31131;DHT22;20292;50.944;4.034;2022-10-01T00:23:10;13.00;99.90
31131;DHT22;20292;50.944;4.034;2022-10-01T00:25:37;13.00;99.90
31131;DHT22;20292;50.944;4.034;2022-10-01T00:28:03;13.00;99.90
31131;DHT22;20292;50.944;4.034;2022-10-01T00:30:28;13.00;99.90
31131;DHT22;20292;50.944;4.034;2022-10-01T00:32:54;13.00;99.90
31131;DHT22;20292;50.944;4.034;2022-10-01T00:35:20;13.00;99.90
31131;DHT22;20292;50.944;4.034;2022-10-01T00:37:48;13.00;99.90
31131;DHT22;20292;50.944;4.034;2022-10-01T00:40:16;13.00;99.90
31131;DHT22;20292;50.944;4.034;2022-10-01T00:42:42;13.00;99.90
31131;DHT22;20292;50.944;4.034;2022-10-01T00:45:10;12.90;99.90
31131;DHT22;20292;50.944;4.034;2022-10-01T00:47:53;13.00;99.90
31131;DHT22;20292;50.944;4.034;2022-10-01T00:50:32;13.00;99.90
31131;DHT22;20292;50.944;4.034;2022-10-01T00:53:02;13.00;99.90
31131;DHT22;20292;50.944;4.034;2022-10-01T00:55:33;13.00;99.90
31131;DHT22;20292;50.944;4.034;2022-10-01T00:58:01;13.00;99.90
31131;DHT22;20292;50.944;4.034;2022-10-01T01:00:27;13.00;99.90
31131;DHT22;20292;50.944;4.034;2022-10-01T01:02:54;13.00;99.90
31131;DHT22;20292;50.944;4.034;2022-10-01T01:05:20;13.00;99.90
31131;DHT22;20292;50.944;4.034;2022-10-01T01:07:47;13.00;99.90
31131;DHT22;20292;50.944;4.034;2022-10-01T01:10:16;13.00;99.90
31131;DHT22;20292;50.944;4.034;2022-10-01T01:13:02;13.00;99.90
31131;DHT22;20292;50.944;4.034;2022-10-01T01:20:49;13.10;99.90
31131;DHT22;20292;50.944;4.034;2022-10-01T01:28:29;13.00;99.90
31131;DHT22;20292;50.944;4.034;2022-10-01T01:31:03;13.10;99.90
31131;DHT22;20292;50.944;4.034;2022-10-01T01:33:31;13.10;99.90
31131;DHT22;20292;50.944;4.034;2022-10-01T01:36:06;13.10;99.90
31131;DHT22;20292;50.944;4.034;2022-10-01T01:39:02;13.20;99.90
31131;DHT22;20292;50.944;4.034;2022-10-01T01:41:28;13.30;99.90
31131;DHT22;20292;50.944;4.034;2022-10-01T01:43:57;13.30;99.90
31131;DHT22;20292;50.944;4.034;2022-10-01T01:46:27;13.20;99.90
31131;DHT22;20292;50.944;4.034;2022-10-01T01:48:59;13.20;99.90
31131;DHT22;20292;50.944;4.034;2022-10-01T01:51:50;13.10;99.90
31131;DHT22;20292;50.944;4.034;2022-10-01T01:54:17;13.00;99.90
31131;DHT22;20292;50.944;4.034;2022-10-01T01:56:44;12.90;99.90
31131;DHT22;20292;50.944;4.034;2022-10-01T01:59:11;12.90;99.90
31131;DHT22;20292;50.944;4.034;2022-10-01T02:01:39;13.00;99.90
31131;DHT22;20292;50.944;4.034;2022-10-01T02:04:16;12.90;99.90
31131;DHT22;20292;50.944;4.034;2022-10-01T02:09:54;13.10;99.90
31131;DHT22;20292;50.944;4.034;2022-10-01T02:18:29;13.30;99.90
31131;DHT22;20292;50.944;4.034;2022-10-01T02:21:18;13.30;99.90
31131;DHT22;20292;50.944;4.034;2022-10-01T02:23:51;13.30;99.90
31131;DHT22;20292;50.944;4.034;2022-10-01T02:26:20;13.30;99.90
31131;DHT22;20292;50.944;4.034;2022-10-01T02:28:48;13.30;99.90
31131;DHT22;20292;50.944;4.034;2022-10-01T02:31:16;13.30;99.90
31131;DHT22;20292;50.944;4.034;2022-10-01T02:33:45;13.30;99.90
31131;DHT22;20292;50.944;4.034;2022-10-01T02:36:12;13.40;99.90
31131;DHT22;20292;50.944;4.034;2022-10-01T02:38:40;13.40;99.90
31131;DHT22;20292;50.944;4.034;2022-10-01T02:41:09;13.40;99.90
31131;DHT22;20292;50.944;4.034;2022-10-01T02:43:52;13.50;99.90
31131;DHT22;20292;50.944;4.034;2022-10-01T02:46:26;13.60;99.90
31131;DHT22;20292;50.944;4.034;2022-10-01T02:48:54;13.60;99.90
31131;DHT22;20292;50.944;4.034;2022-10-01T02:51:27;13.60;99.90
31131;DHT22;20292;50.944;4.034;2022-10-01T02:54:17;13.70;99.90
31131;DHT22;20292;50.944;4.034;2022-10-01T02:56:43;13.80;99.90
31131;DHT22;20292;50.944;4.034;2022-10-01T02:59:27;13.80;99.90
31131;DHT22;20292;50.944;4.034;2022-10-01T03:01:53;13.80;99.90
31131;DHT22;20292;50.944;4.034;2022-10-01T03:04:18;13.80;99.90
31131;DHT22;20292;50.944;4.034;2022-10-01T03:06:44;13.80;99.90
31131;DHT22;20292;50.944;4.034;2022-10-01T03:09:11;13.90;99.90
31131;DHT22;20292;50.944;4.034;2022-10-01T03:11:36;13.90;99.90
31131;DHT22;20292;50.944;4.034;2022-10-01T03:14:02;13.90;99.90
31131;DHT22;20292;50.944;4.034;2022-10-01T03:16:28;14.00;99.90
31131;DHT22;20292;50.944;4.034;2022-10-01T03:18:54;14.00;99.90
31131;DHT22;20292;50.944;4.034;2022-10-01T03:21:19;14.00;99.90
31131;DHT22;20292;50.944;4.034;2022-10-01T03:23:45;14.10;99.90
31131;DHT22;20292;50.944;4.034;2022-10-01T03:26:10;14.20;99.90
31131;DHT22;20292;50.944;4.034;2022-10-01T03:28:36;14.20;99.90
31131;DHT22;20292;50.944;4.034;2022-10-01T03:31:07;14.20;99.90
31131;DHT22;20292;50.944;4.034;2022-10-01T03:33:32;14.20;99.90
31131;DHT22;20292;50.944;4.034;2022-10-01T03:35:58;14.20;99.90
31131;DHT22;20292;50.944;4.034;2022-10-01T03:38:24;14.20;99.90
31131;DHT22;20292;50.944;4.034;2022-10-01T03:40:49;14.20;99.90
31131;DHT22;20292;50.944;4.034;2022-10-01T03:43:15;14.30;99.90
31131;DHT22;20292;50.944;4.034;2022-10-01T03:45:40;14.30;99.90
31131;DHT22;20292;50.944;4.034;2022-10-01T03:48:06;14.30;99.90
31131;DHT22;20292;50.944;4.034;2022-10-01T03:50:32;14.40;99.90
31131;DHT22;20292;50.944;4.034;2022-10-01T03:52:57;14.40;99.90
31131;DHT22;20292;50.944;4.034;2022-10-01T03:55:23;14.50;99.90
31131;DHT22;20292;50.944;4.034;2022-10-01T03:57:49;14.40;99.90
31131;DHT22;20292;50.944;4.034;2022-10-01T04:00:15;14.50;99.90
31131;DHT22;20292;50.944;4.034;2022-10-01T04:02:42;14.50;99.90
31131;DHT22;20292;50.944;4.034;2022-10-01T04:05:08;14.50;99.90
31131;DHT22;20292;50.944;4.034;2022-10-01T04:07:33;14.60;99.90
31131;DHT22;20292;50.944;4.034;2022-10-01T04:09:59;14.70;99.90
31131;DHT22;20292;50.944;4.034;2022-10-01T04:12:25;14.70;99.90
31131;DHT22;20292;50.944;4.034;2022-10-01T04:14:50;14.70;99.90
31131;DHT22;20292;50.944;4.034;2022-10-01T04:17:16;14.80;99.90
31131;DHT22;20292;50.944;4.034;2022-10-01T04:19:42;14.70;99.90
31131;DHT22;20292;50.944;4.034;2022-10-01T04:22:07;14.70;99.90
31131;DHT22;20292;50.944;4.034;2022-10-01T04:24:33;14.70;99.90
31131;DHT22;20292;50.944;4.034;2022-10-01T04:26:58;14.60;99.90
31131;DHT22;20292;50.944;4.034;2022-10-01T04:29:24;14.60;99.90
31131;DHT22;20292;50.944;4.034;2022-10-01T04:31:50;14.60;99.90
31131;DHT22;20292;50.944;4.034;2022-10-01T04:34:15;14.60;99.90
31131;DHT22;20292;50.944;4.034;2022-10-01T04:36:41;14.60;99.90
31131;DHT22;20292;50.944;4.034;2022-10-01T04:39:06;14.70;99.90
31131;DHT22;20292;50.944;4.034;2022-10-01T04:41:32;14.60;99.90
31131;DHT22;20292;50.944;4.034;2022-10-01T04:43:58;14.60;99.90
31131;DHT22;20292;50.944;4.034;2022-10-01T04:46:24;14.60;99.90
31131;DHT22;20292;50.944;4.034;2022-10-01T04:48:50;14.50;99.90
31131;DHT22;20292;50.944;4.034;2022-10-01T04:51:16;14.60;99.90
31131;DHT22;20292;50.944;4.034;2022-10-01T04:53:42;14.70;99.90
31131;DHT22;20292;50.944;4.034;2022-10-01T04:56:07;14.80;99.90
31131;DHT22;20292;50.944;4.034;2022-10-01T04:58:33;14.70;99.90
31131;DHT22;20292;50.944;4.034;2022-10-01T05:00:59;14.80;99.90
31131;DHT22;20292;50.944;4.034;2022-10-01T05:03:24;14.80;99.90
31131;DHT22;20292;50.944;4.034;2022-10-01T05:05:50;14.80;99.90
31131;DHT22;20292;50.944;4.034;2022-10-01T05:08:15;14.80;99.90
31131;DHT22;20292;50.944;4.034;2022-10-01T05:10:41;14.80;99.90
31131;DHT22;20292;50.944;4.034;2022-10-01T05:13:07;14.80;99.90
31131;DHT22;20292;50.944;4.034;2022-10-01T05:15:32;14.70;99.90
31131;DHT22;20292;50.944;4.034;2022-10-01T05:18:00;14.70;99.90
31131;DHT22;20292;50.944;4.034;2022-10-01T05:20:26;14.70;99.90
31131;DHT22;20292;50.944;4.034;2022-10-01T05:22:52;14.70;99.90
31131;DHT22;20292;50.944;4.034;2022-10-01T05:25:19;14.70;99.90
31131;DHT22;20292;50.944;4.034;2022-10-01T05:27:45;14.80;99.90
31131;DHT22;20292;50.944;4.034;2022-10-01T05:30:12;14.80;99.90
31131;DHT22;20292;50.944;4.034;2022-10-01T05:32:38;14.80;99.90
31131;DHT22;20292;50.944;4.034;2022-10-01T05:35:05;14.80;99.90
31131;DHT22;20292;50.944;4.034;2022-10-01T05:37:32;14.80;99.90
31131;DHT22;20292;50.944;4.034;2022-10-01T05:39:57;14.80;99.90
31131;DHT22;20292;50.944;4.034;2022-10-01T05:42:23;14.80;99.90
31131;DHT22;20292;50.944;4.034;2022-10-01T05:44:49;14.80;99.90
31131;DHT22;20292;50.944;4.034;2022-10-01T05:47:15;14.80;99.90
31131;DHT22;20292;50.944;4.034;2022-10-01T05:49:42;14.90;99.90
31131;DHT22;20292;50.944;4.034;2022-10-01T05:52:09;14.80;99.90
31131;DHT22;20292;50.944;4.034;2022-10-01T05:54:35;14.80;99.90
31131;DHT22;20292;50.944;4.034;2022-10-01T05:57:01;14.90;99.90
31131;DHT22;20292;50.944;4.034;2022-10-01T05:59:27;15.00;99.90
31131;DHT22;20292;50.944;4.034;2022-10-01T06:01:52;15.00;99.90
31131;DHT22;20292;50.944;4.034;2022-10-01T06:04:18;15.10;99.90
31131;DHT22;20292;50.944;4.034;2022-10-01T06:06:43;15.20;99.90
31131;DHT22;20292;50.944;4.034;2022-10-01T06:09:09;15.20;99.90
31131;DHT22;20292;50.944;4.034;2022-10-01T06:11:35;15.30;99.90
31131;DHT22;20292;50.944;4.034;2022-10-01T06:14:01;15.30;99.90
31131;DHT22;20292;50.944;4.034;2022-10-01T06:16:27;15.30;99.90
31131;DHT22;20292;50.944;4.034;2022-10-01T06:18:52;15.40;99.90
31131;DHT22;20292;50.944;4.034;2022-10-01T06:21:25;15.40;99.90
31131;DHT22;20292;50.944;4.034;2022-10-01T06:23:51;15.50;99.90
31131;DHT22;20292;50.944;4.034;2022-10-01T06:26:18;15.40;99.90
31131;DHT22;20292;50.944;4.034;2022-10-01T06:28:43;15.50;99.90
31131;DHT22;20292;50.944;4.034;2022-10-01T06:31:09;15.40;99.90
31131;DHT22;20292;50.944;4.034;2022-10-01T06:33:35;15.60;99.90
31131;DHT22;20292;50.944;4.034;2022-10-01T06:36:02;15.50;99.90
31131;DHT22;20292;50.944;4.034;2022-10-01T06:38:28;15.50;99.90
31131;DHT22;20292;50.944;4.034;2022-10-01T06:40:57;15.60;99.90
31131;DHT22;20292;50.944;4.034;2022-10-01T06:43:25;15.70;99.90
31131;DHT22;20292;50.944;4.034;2022-10-01T06:45:51;15.70;99.90
31131;DHT22;20292;50.944;4.034;2022-10-01T06:48:18;15.70;99.90
31131;DHT22;20292;50.944;4.034;2022-10-01T06:50:45;15.70;99.90
31131;DHT22;20292;50.944;4.034;2022-10-01T06:53:12;15.80;99.90
31131;DHT22;20292;50.944;4.034;2022-10-01T06:55:39;15.70;99.90
31131;DHT22;20292;50.944;4.034;2022-10-01T06:58:07;15.80;99.90
31131;DHT22;20292;50.944;4.034;2022-10-01T07:00:34;15.80;99.90
31131;DHT22;20292;50.944;4.034;2022-10-01T07:03:03;16.00;99.90
31131;DHT22;20292;50.944;4.034;2022-10-01T07:05:29;16.10;99.90
31131;DHT22;20292;50.944;4.034;2022-10-01T07:07:54;16.00;99.90
31131;DHT22;20292;50.944;4.034;2022-10-01T07:10:21;16.00;99.90
31131;DHT22;20292;50.944;4.034;2022-10-01T07:12:47;16.10;99.90
31131;DHT22;20292;50.944;4.034;2022-10-01T07:15:14;16.30;99.90
31131;DHT22;20292;50.944;4.034;2022-10-01T07:17:47;16.40;99.90
31131;DHT22;20292;50.944;4.034;2022-10-01T07:20:15;16.40;99.90
31131;DHT22;20292;50.944;4.034;2022-10-01T07:22:45;16.50;99.90
31131;DHT22;20292;50.944;4.034;2022-10-01T07:25:12;16.40;99.90
31131;DHT22;20292;50.944;4.034;2022-10-01T07:27:38;16.50;99.90
31131;DHT22;20292;50.944;4.034;2022-10-01T07:30:04;16.60;99.90
31131;DHT22;20292;50.944;4.034;2022-10-01T07:32:30;16.60;99.90
31131;DHT22;20292;50.944;4.034;2022-10-01T07:34:56;16.70;99.90
31131;DHT22;20292;50.944;4.034;2022-10-01T07:37:22;16.80;99.90
31131;DHT22;20292;50.944;4.034;2022-10-01T07:39:48;16.80;99.90
31131;DHT22;20292;50.944;4.034;2022-10-01T07:42:14;16.90;99.90
31131;DHT22;20292;50.944;4.034;2022-10-01T07:44:39;17.00;99.90
31131;DHT22;20292;50.944;4.034;2022-10-01T07:47:05;17.00;99.90
31131;DHT22;20292;50.944;4.034;2022-10-01T07:49:30;17.10;99.90
31131;DHT22;20292;50.944;4.034;2022-10-01T07:51:56;17.40;99.90
31131;DHT22;20292;50.944;4.034;2022-10-01T07:54:23;18.00;99.90
31131;DHT22;20292;50.944;4.034;2022-10-01T07:56:50;18.70;99.90
31131;DHT22;20292;50.944;4.034;2022-10-01T07:59:23;18.80;99.90
31131;DHT22;20292;50.944;4.034;2022-10-01T08:01:49;19.30;99.90
31131;DHT22;20292;50.944;4.034;2022-10-01T08:04:22;19.90;99.90
31131;DHT22;20292;50.944;4.034;2022-10-01T08:07:07;20.20;99.90
31131;DHT22;20292;50.944;4.034;2022-10-01T08:09:33;20.70;99.90
31131;DHT22;20292;50.944;4.034;2022-10-01T08:11:59;20.50;99.90
31131;DHT22;20292;50.944;4.034;2022-10-01T08:14:25;20.60;99.90
31131;DHT22;20292;50.944;4.034;2022-10-01T08:16:54;20.50;99.90
31131;DHT22;20292;50.944;4.034;2022-10-01T08:19:20;20.60;99.90
31131;DHT22;20292;50.944;4.034;2022-10-01T08:21:45;20.60;99.90
31131;DHT22;20292;50.944;4.034;2022-10-01T08:24:11;20.10;99.90
31131;DHT22;20292;50.944;4.034;2022-10-01T08:26:37;20.10;99.90
31131;DHT22;20292;50.944;4.034;2022-10-01T08:29:02;20.00;99.90
31131;DHT22;20292;50.944;4.034;2022-10-01T08:31:28;20.10;99.90
31131;DHT22;20292;50.944;4.034;2022-10-01T08:33:54;20.20;99.90
31131;DHT22;20292;50.944;4.034;2022-10-01T08:36:20;20.30;99.90
31131;DHT22;20292;50.944;4.034;2022-10-01T08:38:47;20.50;99.90
31131;DHT22;20292;50.944;4.034;2022-10-01T08:43:56;21.00;99.90
31131;DHT22;20292;50.944;4.034;2022-10-01T08:46:26;20.30;99.90
31131;DHT22;20292;50.944;4.034;2022-10-01T08:49:29;19.90;99.90
31131;DHT22;20292;50.944;4.034;2022-10-01T08:51:50;19.70;99.90
31131;DHT22;20292;50.944;4.034;2022-10-01T08:54:40;19.90;99.90
31131;DHT22;20292;50.944;4.034;2022-10-01T08:57:20;19.80;99.90
31131;DHT22;20292;50.944;4.034;2022-10-01T08:59:53;19.90;99.90
31131;DHT22;20292;50.944;4.034;2022-10-01T09:02:28;19.60;99.90
31131;DHT22;20292;50.944;4.034;2022-10-01T09:08:47;19.50;99.90
31131;DHT22;20292;50.944;4.034;2022-10-01T09:21:23;19.70;99.90
31131;DHT22;20292;50.944;4.034;2022-10-01T09:24:13;19.80;99.90
31131;DHT22;20292;50.944;4.034;2022-10-01T09:26:44;19.90;99.90
31131;DHT22;20292;50.944;4.034;2022-10-01T09:29:31;20.00;99.90
31131;DHT22;20292;50.944;4.034;2022-10-01T09:32:01;20.10;99.90
31131;DHT22;20292;50.944;4.034;2022-10-01T09:34:29;20.00;99.90
31131;DHT22;20292;50.944;4.034;2022-10-01T09:42:40;19.20;99.90
31131;DHT22;20292;50.944;4.034;2022-10-01T09:45:10;19.20;99.90
31131;DHT22;20292;50.944;4.034;2022-10-01T09:47:37;19.40;99.90
31131;DHT22;20292;50.944;4.034;2022-10-01T09:50:04;19.40;99.90
31131;DHT22;20292;50.944;4.034;2022-10-01T09:52:36;19.30;99.90
31131;DHT22;20292;50.944;4.034;2022-10-01T09:57:40;19.40;99.90
31131;DHT22;20292;50.944;4.034;2022-10-01T10:00:19;19.50;99.90
31131;DHT22;20292;50.944;4.034;2022-10-01T10:02:49;19.60;99.90
31131;DHT22;20292;50.944;4.034;2022-10-01T10:05:29;19.60;99.90
31131;DHT22;20292;50.944;4.034;2022-10-01T10:08:25;19.60;99.90
31131;DHT22;20292;50.944;4.034;2022-10-01T10:11:04;19.60;99.90
31131;DHT22;20292;50.944;4.034;2022-10-01T10:13:51;19.30;99.90
31131;DHT22;20292;50.944;4.034;2022-10-01T10:16:19;19.10;99.90
31131;DHT22;20292;50.944;4.034;2022-10-01T10:18:53;19.10;99.90
31131;DHT22;20292;50.944;4.034;2022-10-01T10:21:23;19.10;99.90
31131;DHT22;20292;50.944;4.034;2022-10-01T10:24:01;19.00;99.90
31131;DHT22;20292;50.944;4.034;2022-10-01T10:26:32;19.00;99.90
31131;DHT22;20292;50.944;4.034;2022-10-01T10:29:00;18.80;99.90
31131;DHT22;20292;50.944;4.034;2022-10-01T10:31:29;18.70;99.90
31131;DHT22;20292;50.944;4.034;2022-10-01T10:34:36;18.70;99.90
31131;DHT22;20292;50.944;4.034;2022-10-01T10:37:18;18.70;99.90
31131;DHT22;20292;50.944;4.034;2022-10-01T10:39:49;18.50;99.90
31131;DHT22;20292;50.944;4.034;2022-10-01T10:42:18;18.50;99.90
31131;DHT22;20292;50.944;4.034;2022-10-01T10:44:46;18.50;99.90
31131;DHT22;20292;50.944;4.034;2022-10-01T10:47:15;18.60;99.90
31131;DHT22;20292;50.944;4.034;2022-10-01T10:49:51;18.60;99.90
31131;DHT22;20292;50.944;4.034;2022-10-01T10:52:31;18.70;99.90
31131;DHT22;20292;50.944;4.034;2022-10-01T10:55:00;18.70;99.90
31131;DHT22;20292;50.944;4.034;2022-10-01T10:57:26;18.80;99.90
31131;DHT22;20292;50.944;4.034;2022-10-01T11:00:19;18.70;99.90
31131;DHT22;20292;50.944;4.034;2022-10-01T11:03:04;18.80;99.90
31131;DHT22;20292;50.944;4.034;2022-10-01T11:05:32;18.80;99.90
31131;DHT22;20292;50.944;4.034;2022-10-01T11:08:06;18.90;99.90
31131;DHT22;20292;50.944;4.034;2022-10-01T11:10:55;19.00;99.90
31131;DHT22;20292;50.944;4.034;2022-10-01T11:13:40;19.20;99.90
31131;DHT22;20292;50.944;4.034;2022-10-01T11:22:15;19.60;99.90
31131;DHT22;20292;50.944;4.034;2022-10-01T11:32:55;19.20;99.90
31131;DHT22;20292;50.944;4.034;2022-10-01T11:40:41;18.70;99.90
31131;DHT22;20292;50.944;4.034;2022-10-01T11:43:20;18.70;99.90
31131;DHT22;20292;50.944;4.034;2022-10-01T11:45:52;18.70;99.90
31131;DHT22;20292;50.944;4.034;2022-10-01T11:48:28;18.80;99.90
31131;DHT22;20292;50.944;4.034;2022-10-01T11:51:03;18.70;99.90
31131;DHT22;20292;50.944;4.034;2022-10-01T11:53:32;18.80;99.90
31131;DHT22;20292;50.944;4.034;2022-10-01T11:56:06;18.90;99.90
31131;DHT22;20292;50.944;4.034;2022-10-01T12:09:28;19.40;99.90
31131;DHT22;20292;50.944;4.034;2022-10-01T12:12:06;19.60;99.90
31131;DHT22;20292;50.944;4.034;2022-10-01T12:14:50;19.70;99.90
31131;DHT22;20292;50.944;4.034;2022-10-01T12:17:40;19.80;99.90
31131;DHT22;20292;50.944;4.034;2022-10-01T12:23:02;20.40;99.90
31131;DHT22;20292;50.944;4.034;2022-10-01T12:28:45;20.80;99.90
31131;DHT22;20292;50.944;4.034;2022-10-01T12:31:20;20.60;99.90
31131;DHT22;20292;50.944;4.034;2022-10-01T12:37:02;20.30;99.90
31131;DHT22;20292;50.944;4.034;2022-10-01T12:42:19;20.00;99.90
31131;DHT22;20292;50.944;4.034;2022-10-01T12:45:23;19.90;99.90
31131;DHT22;20292;50.944;4.034;2022-10-01T12:48:07;19.80;99.90
31131;DHT22;20292;50.944;4.034;2022-10-01T12:53:31;19.60;99.90
31131;DHT22;20292;50.944;4.034;2022-10-01T12:56:36;19.50;99.90
31131;DHT22;20292;50.944;4.034;2022-10-01T13:02:08;19.60;99.90
31131;DHT22;20292;50.944;4.034;2022-10-01T13:04:41;19.70;99.90
31131;DHT22;20292;50.944;4.034;2022-10-01T13:07:39;19.60;99.90
31131;DHT22;20292;50.944;4.034;2022-10-01T13:13:12;19.90;99.90
31131;DHT22;20292;50.944;4.034;2022-10-01T13:15:40;20.40;99.90
31131;DHT22;20292;50.944;4.034;2022-10-01T13:29:22;21.00;99.90
31131;DHT22;20292;50.944;4.034;2022-10-01T13:31:59;21.10;99.90
31131;DHT22;20292;50.944;4.034;2022-10-01T13:34:39;21.00;99.90
31131;DHT22;20292;50.944;4.034;2022-10-01T13:37:30;21.00;99.90
31131;DHT22;20292;50.944;4.034;2022-10-01T13:39:57;20.80;99.90
31131;DHT22;20292;50.944;4.034;2022-10-01T13:42:25;20.50;99.90
31131;DHT22;20292;50.944;4.034;2022-10-01T13:44:57;20.50;99.90
31131;DHT22;20292;50.944;4.034;2022-10-01T13:47:24;20.60;99.90
31131;DHT22;20292;50.944;4.034;2022-10-01T13:49:59;20.70;99.90
31131;DHT22;20292;50.944;4.034;2022-10-01T13:52:27;20.80;99.90
31131;DHT22;20292;50.944;4.034;2022-10-01T13:54:54;20.70;99.90
31131;DHT22;20292;50.944;4.034;2022-10-01T13:57:35;20.60;99.90
31131;DHT22;20292;50.944;4.034;2022-10-01T14:02:38;20.40;99.90
31131;DHT22;20292;50.944;4.034;2022-10-01T14:05:35;20.20;99.90
31131;DHT22;20292;50.944;4.034;2022-10-01T14:10:58;19.80;99.90
31131;DHT22;20292;50.944;4.034;2022-10-01T14:13:46;19.70;99.90
31131;DHT22;20292;50.944;4.034;2022-10-01T14:16:39;19.60;99.90
31131;DHT22;20292;50.944;4.034;2022-10-01T14:19:07;19.60;99.90
31131;DHT22;20292;50.944;4.034;2022-10-01T14:22:06;19.60;99.90
31131;DHT22;20292;50.944;4.034;2022-10-01T14:27:53;19.70;99.90
31131;DHT22;20292;50.944;4.034;2022-10-01T14:30:23;19.60;99.90
31131;DHT22;20292;50.944;4.034;2022-10-01T14:33:25;19.60;99.90
31131;DHT22;20292;50.944;4.034;2022-10-01T14:36:12;19.70;99.90
31131;DHT22;20292;50.944;4.034;2022-10-01T14:38:39;19.60;99.90
31131;DHT22;20292;50.944;4.034;2022-10-01T14:41:05;19.50;99.90
31131;DHT22;20292;50.944;4.034;2022-10-01T14:43:31;19.40;99.90
31131;DHT22;20292;50.944;4.034;2022-10-01T14:46:02;19.30;99.90
31131;DHT22;20292;50.944;4.034;2022-10-01T14:48:33;19.20;99.90
31131;DHT22;20292;50.944;4.034;2022-10-01T14:51:04;19.10;99.90
31131;DHT22;20292;50.944;4.034;2022-10-01T14:53:33;19.10;99.90
31131;DHT22;20292;50.944;4.034;2022-10-01T14:56:04;19.10;99.90
31131;DHT22;20292;50.944;4.034;2022-10-01T14:58:34;19.00;99.90
31131;DHT22;20292;50.944;4.034;2022-10-01T15:01:01;18.90;99.90
31131;DHT22;20292;50.944;4.034;2022-10-01T15:03:38;19.00;99.90
31131;DHT22;20292;50.944;4.034;2022-10-01T15:06:14;19.00;99.90
31131;DHT22;20292;50.944;4.034;2022-10-01T15:11:10;19.20;99.90
31131;DHT22;20292;50.944;4.034;2022-10-01T15:13:42;19.30;99.90
31131;DHT22;20292;50.944;4.034;2022-10-01T15:16:20;19.40;99.90
31131;DHT22;20292;50.944;4.034;2022-10-01T15:18:58;19.40;99.90
31131;DHT22;20292;50.944;4.034;2022-10-01T15:23:57;19.50;99.90
31131;DHT22;20292;50.944;4.034;2022-10-01T15:26:25;19.50;99.90
31131;DHT22;20292;50.944;4.034;2022-10-01T15:29:10;19.50;99.90
31131;DHT22;20292;50.944;4.034;2022-10-01T15:31:36;19.50;99.90
31131;DHT22;20292;50.944;4.034;2022-10-01T15:34:03;19.50;99.90
31131;DHT22;20292;50.944;4.034;2022-10-01T15:36:29;19.50;99.90
31131;DHT22;20292;50.944;4.034;2022-10-01T15:38:55;19.50;99.90
31131;DHT22;20292;50.944;4.034;2022-10-01T15:41:24;19.60;99.90
31131;DHT22;20292;50.944;4.034;2022-10-01T15:43:51;19.60;99.90
31131;DHT22;20292;50.944;4.034;2022-10-01T15:46:24;19.50;99.90
31131;DHT22;20292;50.944;4.034;2022-10-01T15:49:19;19.60;99.90
31131;DHT22;20292;50.944;4.034;2022-10-01T15:54:40;19.60;99.90
31131;DHT22;20292;50.944;4.034;2022-10-01T15:57:06;19.60;99.90
31131;DHT22;20292;50.944;4.034;2022-10-01T15:59:33;19.60;99.90
31131;DHT22;20292;50.944;4.034;2022-10-01T16:02:00;19.60;99.90
31131;DHT22;20292;50.944;4.034;2022-10-01T16:04:31;19.60;99.90
31131;DHT22;20292;50.944;4.034;2022-10-01T16:06:57;19.60;99.90
31131;DHT22;20292;50.944;4.034;2022-10-01T16:09:24;19.60;99.90
31131;DHT22;20292;50.944;4.034;2022-10-01T16:12:27;19.60;99.90
31131;DHT22;20292;50.944;4.034;2022-10-01T16:15:04;19.50;99.90
31131;DHT22;20292;50.944;4.034;2022-10-01T16:17:36;19.50;99.90
31131;DHT22;20292;50.944;4.034;2022-10-01T16:22:39;19.50;99.90
31131;DHT22;20292;50.944;4.034;2022-10-01T16:27:59;19.50;99.90
31131;DHT22;20292;50.944;4.034;2022-10-01T16:30:28;19.50;99.90
31131;DHT22;20292;50.944;4.034;2022-10-01T16:32:56;19.60;99.90
31131;DHT22;20292;50.944;4.034;2022-10-01T16:35:30;19.50;99.90
31131;DHT22;20292;50.944;4.034;2022-10-01T16:37:57;19.40;99.90
31131;DHT22;20292;50.944;4.034;2022-10-01T16:40:25;19.30;99.90
31131;DHT22;20292;50.944;4.034;2022-10-01T16:42:51;19.30;99.90
31131;DHT22;20292;50.944;4.034;2022-10-01T16:45:22;19.20;99.90
31131;DHT22;20292;50.944;4.034;2022-10-01T16:47:49;19.20;99.90
31131;DHT22;20292;50.944;4.034;2022-10-01T16:50:17;19.20;99.90
31131;DHT22;20292;50.944;4.034;2022-10-01T16:52:44;19.20;99.90
31131;DHT22;20292;50.944;4.034;2022-10-01T16:55:24;19.20;99.90
31131;DHT22;20292;50.944;4.034;2022-10-01T16:57:51;19.10;99.90
31131;DHT22;20292;50.944;4.034;2022-10-01T17:00:20;19.20;99.90
31131;DHT22;20292;50.944;4.034;2022-10-01T17:02:46;19.10;99.90
31131;DHT22;20292;50.944;4.034;2022-10-01T17:05:21;19.10;99.90
31131;DHT22;20292;50.944;4.034;2022-10-01T17:07:47;19.10;99.90
31131;DHT22;20292;50.944;4.034;2022-10-01T17:10:14;19.00;99.90
31131;DHT22;20292;50.944;4.034;2022-10-01T17:12:40;19.00;99.90
31131;DHT22;20292;50.944;4.034;2022-10-01T17:15:06;19.00;99.90
31131;DHT22;20292;50.944;4.034;2022-10-01T17:17:32;19.00;99.90
31131;DHT22;20292;50.944;4.034;2022-10-01T17:19:58;19.00;99.90
31131;DHT22;20292;50.944;4.034;2022-10-01T17:22:23;19.00;99.90
31131;DHT22;20292;50.944;4.034;2022-10-01T17:24:49;18.90;99.90
31131;DHT22;20292;50.944;4.034;2022-10-01T17:27:15;18.90;99.90
31131;DHT22;20292;50.944;4.034;2022-10-01T17:29:40;18.90;99.90
31131;DHT22;20292;50.944;4.034;2022-10-01T17:32:06;18.90;99.90
31131;DHT22;20292;50.944;4.034;2022-10-01T17:34:32;18.80;99.90
31131;DHT22;20292;50.944;4.034;2022-10-01T17:37:00;18.70;99.90
31131;DHT22;20292;50.944;4.034;2022-10-01T17:39:25;18.70;99.90
31131;DHT22;20292;50.944;4.034;2022-10-01T17:41:51;18.60;99.90
31131;DHT22;20292;50.944;4.034;2022-10-01T17:44:17;18.60;99.90
31131;DHT22;20292;50.944;4.034;2022-10-01T17:46:42;18.60;99.90
31131;DHT22;20292;50.944;4.034;2022-10-01T17:49:08;18.50;99.90
31131;DHT22;20292;50.944;4.034;2022-10-01T17:51:34;18.40;99.90
31131;DHT22;20292;50.944;4.034;2022-10-01T17:54:00;18.30;99.90
31131;DHT22;20292;50.944;4.034;2022-10-01T17:56:27;18.20;99.90
31131;DHT22;20292;50.944;4.034;2022-10-01T17:58:56;18.20;99.90
31131;DHT22;20292;50.944;4.034;2022-10-01T18:01:22;18.10;99.90